sensor_id;sensor_type;location;lat;lon;timestamp;pressure;altitude;pressure_sealevel;temperature;humidity
67840;BME280;54636;51.684;5.142;2023-05-09T00:02:08;101819.06;;;14.57;100.00
67840;BME280;54636;51.684;5.142;2023-05-09T00:04:34;101817.31;;;14.54;100.00
67840;BME280;54636;51.684;5.142;2023-05-09T00:07:00;101810.06;;;14.50;100.00
67840;BME280;54636;51.684;5.142;2023-05-09T00:09:25;101806.81;;;14.46;100.00
67840;BME280;54636;51.684;5.142;2023-05-09T00:11:51;101800.50;;;14.40;100.00
67840;BME280;54636;51.684;5.142;2023-05-09T00:14:16;101803.53;;;14.42;100.00
67840;BME280;54636;51.684;5.142;2023-05-09T00:16:45;101800.50;;;14.40;100.00
67840;BME280;54636;51.684;5.142;2023-05-09T00:19:11;101802.22;;;14.38;100.00
67840;BME280;54636;51.684;5.142;2023-05-09T00:21:37;101798.19;;;14.33;100.00
67840;BME280;54636;51.684;5.142;2023-05-09T00:24:03;101796.69;;;14.32;100.00
67840;BME280;54636;51.684;5.142;2023-05-09T00:26:29;101789.50;;;14.29;100.00
67840;BME280;54636;51.684;5.142;2023-05-09T00:28:54;101787.25;;;14.28;100.00
67840;BME280;54636;51.684;5.142;2023-05-09T00:31:20;101779.47;;;14.21;100.00
67840;BME280;54636;51.684;5.142;2023-05-09T00:33:45;101797.41;;;14.27;100.00
67840;BME280;54636;51.684;5.142;2023-05-09T00:36:11;101793.94;;;14.27;100.00
67840;BME280;54636;51.684;5.142;2023-05-09T00:38:36;101773.03;;;14.24;100.00
67840;BME280;54636;51.684;5.142;2023-05-09T00:41:02;101776.78;;;14.26;100.00
67840;BME280;54636;51.684;5.142;2023-05-09T00:43:28;101777.75;;;14.23;100.00
67840;BME280;54636;51.684;5.142;2023-05-09T00:45:54;101768.53;;;14.21;100.00
67840;BME280;54636;51.684;5.142;2023-05-09T00:48:20;101770.53;;;14.20;100.00
67840;BME280;54636;51.684;5.142;2023-05-09T00:50:46;101764.50;;;14.16;100.00
67840;BME280;54636;51.684;5.142;2023-05-09T00:53:17;101765.75;;;14.15;100.00
67840;BME280;54636;51.684;5.142;2023-05-09T00:55:43;101759.53;;;14.14;100.00
67840;BME280;54636;51.684;5.142;2023-05-09T00:58:10;101758.53;;;14.12;100.00
67840;BME280;54636;51.684;5.142;2023-05-09T01:00:35;101738.53;;;14.00;100.00
67840;BME280;54636;51.684;5.142;2023-05-09T01:03:01;101756.25;;;14.10;100.00
67840;BME280;54636;51.684;5.142;2023-05-09T01:05:59;101738.53;;;14.00;100.00
67840;BME280;54636;51.684;5.142;2023-05-09T01:08:50;101738.31;;;14.04;100.00
67840;BME280;54636;51.684;5.142;2023-05-09T01:11:31;101749.25;;;14.04;100.00
67840;BME280;54636;51.684;5.142;2023-05-09T01:16:46;101729.53;;;13.94;100.00
67840;BME280;54636;51.684;5.142;2023-05-09T01:22:14;101726.53;;;13.92;100.00
67840;BME280;54636;51.684;5.142;2023-05-09T01:27:28;101717.03;;;13.88;100.00
67840;BME280;54636;51.684;5.142;2023-05-09T01:29:58;101713.56;;;13.87;100.00
67840;BME280;54636;51.684;5.142;2023-05-09T01:32:27;101706.66;;;13.92;100.00
67840;BME280;54636;51.684;5.142;2023-05-09T01:34:59;101702.38;;;13.85;100.00
67840;BME280;54636;51.684;5.142;2023-05-09T01:37:35;101705.38;;;13.87;100.00
67840;BME280;54636;51.684;5.142;2023-05-09T01:40:07;101689.41;;;13.80;100.00
67840;BME280;54636;51.684;5.142;2023-05-09T01:42:44;101659.72;;;13.62;100.00
67840;BME280;54636;51.684;5.142;2023-05-09T01:45:12;101690.91;;;13.81;100.00
67840;BME280;54636;51.684;5.142;2023-05-09T01:47:39;101681.44;;;13.76;100.00
67840;BME280;54636;51.684;5.142;2023-05-09T01:50:05;101681.22;;;13.80;100.00
67840;BME280;54636;51.684;5.142;2023-05-09T01:52:32;101683.19;;;13.79;100.00
67840;BME280;54636;51.684;5.142;2023-05-09T01:55:00;101686.41;;;13.78;100.00
67840;BME280;54636;51.684;5.142;2023-05-09T01:57:28;101681.63;;;13.73;100.00
67840;BME280;54636;51.684;5.142;2023-05-09T01:59:55;101678.44;;;13.74;100.00
67840;BME280;54636;51.684;5.142;2023-05-09T02:02:24;101676.94;;;13.73;100.00
67840;BME280;54636;51.684;5.142;2023-05-09T02:04:51;101677.41;;;13.72;100.00
67840;BME280;54636;51.684;5.142;2023-05-09T02:07:21;101679.66;;;13.73;100.00
67840;BME280;54636;51.684;5.142;2023-05-09T02:09:48;101671.47;;;13.73;100.00
67840;BME280;54636;51.684;5.142;2023-05-09T02:12:13;101673.66;;;13.69;100.00
67840;BME280;54636;51.684;5.142;2023-05-09T02:14:39;101674.41;;;13.70;100.00
67840;BME280;54636;51.684;5.142;2023-05-09T02:17:04;101672.91;;;13.69;100.00
67840;BME280;54636;51.684;5.142;2023-05-09T02:19:34;101680.84;;;13.67;100.00
67840;BME280;54636;51.684;5.142;2023-05-09T02:22:01;101674.38;;;13.64;100.00
67840;BME280;54636;51.684;5.142;2023-05-09T02:24:27;101675.84;;;13.65;100.00
67840;BME280;54636;51.684;5.142;2023-05-09T02:26:54;101676.84;;;13.62;100.00
67840;BME280;54636;51.684;5.142;2023-05-09T02:29:20;101667.38;;;13.58;100.00
67840;BME280;54636;51.684;5.142;2023-05-09T02:31:50;101655.34;;;13.49;100.00
67840;BME280;54636;51.684;5.142;2023-05-09T02:34:17;101648.41;;;13.48;100.00
67840;BME280;54636;51.684;5.142;2023-05-09T02:36:44;101672.59;;;13.61;100.00
67840;BME280;54636;51.684;5.142;2023-05-09T02:39:10;101670.38;;;13.60;100.00
67840;BME280;54636;51.684;5.142;2023-05-09T02:41:36;101662.44;;;13.62;100.00
67840;BME280;54636;51.684;5.142;2023-05-09T02:44:01;101651.72;;;13.58;100.00
67840;BME280;54636;51.684;5.142;2023-05-09T02:46:27;101644.09;;;13.62;100.00
67840;BME280;54636;51.684;5.142;2023-05-09T02:48:53;101645.31;;;13.61;100.00
67840;BME280;54636;51.684;5.142;2023-05-09T02:51:19;101644.84;;;13.63;100.00
67840;BME280;54636;51.684;5.142;2023-05-09T02:53:44;101648.03;;;13.61;100.00
67840;BME280;54636;51.684;5.142;2023-05-09T02:56:10;101642.84;;;13.63;100.00
67840;BME280;54636;51.684;5.142;2023-05-09T02:58:35;101645.59;;;13.63;100.00
67840;BME280;54636;51.684;5.142;2023-05-09T03:01:00;101634.66;;;13.63;100.00
67840;BME280;54636;51.684;5.142;2023-05-09T03:03:26;101639.84;;;13.61;100.00
67840;BME280;54636;51.684;5.142;2023-05-09T03:05:51;101620.97;;;13.58;100.00
67840;BME280;54636;51.684;5.142;2023-05-09T03:08:17;101630.44;;;13.62;100.00
67840;BME280;54636;51.684;5.142;2023-05-09T03:10:42;101624.22;;;13.62;100.00
67840;BME280;54636;51.684;5.142;2023-05-09T03:13:07;101623.22;;;13.59;100.00
67840;BME280;54636;51.684;5.142;2023-05-09T03:15:33;101612.50;;;13.56;100.00
67840;BME280;54636;51.684;5.142;2023-05-09T03:17:58;101611.75;;;13.55;100.00
67840;BME280;54636;51.684;5.142;2023-05-09T03:20:25;101612.50;;;13.56;100.00
67840;BME280;54636;51.684;5.142;2023-05-09T03:22:51;101611.47;;;13.53;100.00
67840;BME280;54636;51.684;5.142;2023-05-09T03:25:16;101613.94;;;13.51;100.00
67840;BME280;54636;51.684;5.142;2023-05-09T03:27:42;101623.56;;;13.46;100.00
67840;BME280;54636;51.684;5.142;2023-05-09T03:30:08;101611.38;;;13.42;100.00
67840;BME280;54636;51.684;5.142;2023-05-09T03:32:33;101614.31;;;13.38;100.00
67840;BME280;54636;51.684;5.142;2023-05-09T03:34:58;101607.34;;;13.37;100.00
67840;BME280;54636;51.684;5.142;2023-05-09T03:37:24;101606.31;;;13.35;100.00
67840;BME280;54636;51.684;5.142;2023-05-09T03:39:49;101603.06;;;13.31;100.00
67840;BME280;54636;51.684;5.142;2023-05-09T03:42:15;101589.41;;;13.31;100.00
67840;BME280;54636;51.684;5.142;2023-05-09T03:44:40;101579.66;;;13.24;100.00
67840;BME280;54636;51.684;5.142;2023-05-09T03:47:06;101589.91;;;13.29;100.00
67840;BME280;54636;51.684;5.142;2023-05-09T03:49:31;101586.16;;;13.27;100.00
67840;BME280;54636;51.684;5.142;2023-05-09T03:51:57;101589.22;;;13.34;100.00
67840;BME280;54636;51.684;5.142;2023-05-09T03:54:22;101575.03;;;13.30;100.00
67840;BME280;54636;51.684;5.142;2023-05-09T03:56:48;101582.53;;;13.35;100.00
67840;BME280;54636;51.684;5.142;2023-05-09T03:59:13;101581.78;;;13.35;100.00
67840;BME280;54636;51.684;5.142;2023-05-09T04:01:40;101579.03;;;13.35;100.00
67840;BME280;54636;51.684;5.142;2023-05-09T04:04:06;101580.53;;;13.36;100.00
67840;BME280;54636;51.684;5.142;2023-05-09T04:06:32;101577.06;;;13.35;100.00
67840;BME280;54636;51.684;5.142;2023-05-09T04:08:58;101572.34;;;13.36;100.00
67840;BME280;54636;51.684;5.142;2023-05-09T04:11:23;101577.81;;;13.36;100.00
67840;BME280;54636;51.684;5.142;2023-05-09T04:13:49;101570.09;;;13.34;100.00
67840;BME280;54636;51.684;5.142;2023-05-09T04:16:15;101567.84;;;13.33;100.00
67840;BME280;54636;51.684;5.142;2023-05-09T04:18:40;101571.13;;;13.37;100.00
67840;BME280;54636;51.684;5.142;2023-05-09T04:21:07;101567.22;;;13.43;100.00
67840;BME280;54636;51.684;5.142;2023-05-09T04:23:34;101576.63;;;13.42;100.00
67840;BME280;54636;51.684;5.142;2023-05-09T04:26:00;101572.47;;;13.47;100.00
67840;BME280;54636;51.684;5.142;2023-05-09T04:28:26;101569.78;;;13.52;100.00
67840;BME280;54636;51.684;5.142;2023-05-09T04:30:52;101563.38;;;13.56;100.00
67840;BME280;54636;51.684;5.142;2023-05-09T04:33:17;101562.41;;;13.59;100.00
67840;BME280;54636;51.684;5.142;2023-05-09T04:35:43;101550.75;;;13.58;100.00
67840;BME280;54636;51.684;5.142;2023-05-09T04:38:08;101557.22;;;13.66;100.00
67840;BME280;54636;51.684;5.142;2023-05-09T04:40:34;101552.78;;;13.69;100.00
67840;BME280;54636;51.684;5.142;2023-05-09T04:42:59;101553.59;;;13.75;100.00
67840;BME280;54636;51.684;5.142;2023-05-09T04:45:25;101545.66;;;13.77;100.00
67840;BME280;54636;51.684;5.142;2023-05-09T04:47:50;101540.72;;;13.81;100.00
67840;BME280;54636;51.684;5.142;2023-05-09T04:50:16;101542.22;;;13.82;100.00
67840;BME280;54636;51.684;5.142;2023-05-09T04:52:41;101537.03;;;13.84;100.00
67840;BME280;54636;51.684;5.142;2023-05-09T04:55:07;101540.28;;;13.88;100.00
67840;BME280;54636;51.684;5.142;2023-05-09T04:57:32;101537.34;;;13.92;100.00
67840;BME280;54636;51.684;5.142;2023-05-09T04:59:58;101538.88;;;13.98;100.00
67840;BME280;54636;51.684;5.142;2023-05-09T05:02:23;101526.00;;;14.04;100.00
67840;BME280;54636;51.684;5.142;2023-05-09T05:04:50;101516.34;;;14.09;100.00
67840;BME280;54636;51.684;5.142;2023-05-09T05:07:15;101513.41;;;14.18;100.00
67840;BME280;54636;51.684;5.142;2023-05-09T05:09:41;101506.22;;;14.21;100.00
67840;BME280;54636;51.684;5.142;2023-05-09T05:12:06;101506.03;;;14.30;100.00
67840;BME280;54636;51.684;5.142;2023-05-09T05:14:33;101504.81;;;14.36;100.00
67840;BME280;54636;51.684;5.142;2023-05-09T05:16:58;101502.31;;;14.38;100.00
67840;BME280;54636;51.684;5.142;2023-05-09T05:19:25;101499.66;;;14.44;100.00
67840;BME280;54636;51.684;5.142;2023-05-09T05:21:51;101496.69;;;14.47;100.00
67840;BME280;54636;51.684;5.142;2023-05-09T05:24:16;101498.22;;;14.60;100.00
67840;BME280;54636;51.684;5.142;2023-05-09T05:26:41;101490.78;;;14.66;100.00
67840;BME280;54636;51.684;5.142;2023-05-09T05:29:07;101492.06;;;14.76;100.00
67840;BME280;54636;51.684;5.142;2023-05-09T05:31:32;101478.66;;;14.78;100.00
67840;BME280;54636;51.684;5.142;2023-05-09T05:33:58;101483.91;;;14.87;100.00
67840;BME280;54636;51.684;5.142;2023-05-09T05:36:24;101480.91;;;14.85;100.00
67840;BME280;54636;51.684;5.142;2023-05-09T05:38:49;101477.44;;;14.85;100.00
67840;BME280;54636;51.684;5.142;2023-05-09T05:41:15;101463.97;;;14.75;100.00
67840;BME280;54636;51.684;5.142;2023-05-09T05:43:41;101472.41;;;14.72;100.00
67840;BME280;54636;51.684;5.142;2023-05-09T05:46:06;101471.19;;;14.73;100.00
67840;BME280;54636;51.684;5.142;2023-05-09T05:48:32;101461.47;;;14.66;100.00
67840;BME280;54636;51.684;5.142;2023-05-09T05:50:57;101470.44;;;14.72;100.00
67840;BME280;54636;51.684;5.142;2023-05-09T05:53:24;101466.22;;;14.71;100.00
67840;BME280;54636;51.684;5.142;2023-05-09T05:55:49;101466.47;;;14.73;100.00
67840;BME280;54636;51.684;5.142;2023-05-09T05:58:15;101467.97;;;14.74;100.00
67840;BME280;54636;51.684;5.142;2023-05-09T06:00:40;101462.75;;;14.76;100.00
67840;BME280;54636;51.684;5.142;2023-05-09T06:03:05;101465.50;;;14.82;100.00
67840;BME280;54636;51.684;5.142;2023-05-09T06:05:31;101458.78;;;14.83;100.00
67840;BME280;54636;51.684;5.142;2023-05-09T06:07:56;101461.50;;;14.83;100.00
67840;BME280;54636;51.684;5.142;2023-05-09T06:10:22;101460.03;;;14.88;100.00
67840;BME280;54636;51.684;5.142;2023-05-09T06:12:47;101454.81;;;14.84;100.00
67840;BME280;54636;51.684;5.142;2023-05-09T06:15:13;101463.28;;;14.92;100.00
67840;BME280;54636;51.684;5.142;2023-05-09T06:17:38;101440.88;;;14.88;100.00
67840;BME280;54636;51.684;5.142;2023-05-09T06:20:04;101458.53;;;14.98;100.00
67840;BME280;54636;51.684;5.142;2023-05-09T06:22:30;101447.59;;;14.92;100.00
67840;BME280;54636;51.684;5.142;2023-05-09T06:24:55;101435.66;;;14.90;100.00
67840;BME280;54636;51.684;5.142;2023-05-09T06:27:21;101453.06;;;14.98;100.00
67840;BME280;54636;51.684;5.142;2023-05-09T06:29:46;101438.66;;;14.92;100.00
67840;BME280;54636;51.684;5.142;2023-05-09T06:32:13;101435.19;;;14.91;100.00
67840;BME280;54636;51.684;5.142;2023-05-09T06:34:39;101444.59;;;14.96;100.00
67840;BME280;54636;51.684;5.142;2023-05-09T06:37:06;101445.88;;;15.11;100.00
67840;BME280;54636;51.684;5.142;2023-05-09T06:39:32;101435.91;;;15.08;100.00
67840;BME280;54636;51.684;5.142;2023-05-09T06:41:57;101439.66;;;15.11;100.00
67840;BME280;54636;51.684;5.142;2023-05-09T06:44:23;101446.88;;;15.14;100.00
67840;BME280;54636;51.684;5.142;2023-05-09T06:46:49;101437.91;;;15.13;100.00
67840;BME280;54636;51.684;5.142;2023-05-09T06:49:16;101440.16;;;15.15;100.00
67840;BME280;54636;51.684;5.142;2023-05-09T06:51:41;101438.66;;;15.14;100.00
67840;BME280;54636;51.684;5.142;2023-05-09T06:54:06;101430.19;;;15.18;100.00
67840;BME280;54636;51.684;5.142;2023-05-09T06:56:32;101432.69;;;15.21;100.00
67840;BME280;54636;51.684;5.142;2023-05-09T06:58:58;101437.91;;;15.19;100.00
67840;BME280;54636;51.684;5.142;2023-05-09T07:01:24;101416.75;;;15.03;100.00
67840;BME280;54636;51.684;5.142;2023-05-09T07:03:49;101423.47;;;15.07;100.00
67840;BME280;54636;51.684;5.142;2023-05-09T07:06:14;101430.44;;;15.03;100.00
67840;BME280;54636;51.684;5.142;2023-05-09T07:08:40;101419.75;;;14.94;100.00
67840;BME280;54636;51.684;5.142;2023-05-09T07:11:06;101418.75;;;14.86;100.00
67840;BME280;54636;51.684;5.142;2023-05-09T07:13:31;101419.25;;;14.84;100.00
67840;BME280;54636;51.684;5.142;2023-05-09T07:15:56;101415.78;;;14.83;100.00
67840;BME280;54636;51.684;5.142;2023-05-09T07:18:22;101407.78;;;14.74;100.00
67840;BME280;54636;51.684;5.142;2023-05-09T07:20:47;101403.06;;;14.69;100.00
67840;BME280;54636;51.684;5.142;2023-05-09T07:23:12;101404.56;;;14.70;100.00
67840;BME280;54636;51.684;5.142;2023-05-09T07:25:38;101407.78;;;14.69;100.00
67840;BME280;54636;51.684;5.142;2023-05-09T07:28:04;101396.34;;;14.65;100.00
67840;BME280;54636;51.684;5.142;2023-05-09T07:30:30;101398.31;;;14.64;100.00
67840;BME280;54636;51.684;5.142;2023-05-09T07:32:55;101398.84;;;14.68;100.00
67840;BME280;54636;51.684;5.142;2023-05-09T07:35:20;101397.59;;;14.75;100.00
67840;BME280;54636;51.684;5.142;2023-05-09T07:37:46;101391.63;;;14.76;100.00
67840;BME280;54636;51.684;5.142;2023-05-09T07:40:13;101402.34;;;14.86;100.00
67840;BME280;54636;51.684;5.142;2023-05-09T07:42:39;101391.16;;;14.89;100.00
67840;BME280;54636;51.684;5.142;2023-05-09T07:45:05;101392.66;;;14.90;100.00
67840;BME280;54636;51.684;5.142;2023-05-09T07:47:31;101380.97;;;14.90;100.00
67840;BME280;54636;51.684;5.142;2023-05-09T07:49:57;101381.47;;;14.94;100.00
67840;BME280;54636;51.684;5.142;2023-05-09T07:52:22;101385.66;;;15.00;100.00
67840;BME280;54636;51.684;5.142;2023-05-09T07:54:48;101387.66;;;15.05;100.00
67840;BME280;54636;51.684;5.142;2023-05-09T07:57:13;101380.44;;;15.13;100.00
67840;BME280;54636;51.684;5.142;2023-05-09T07:59:38;101378.97;;;15.24;100.00
67840;BME280;54636;51.684;5.142;2023-05-09T08:02:04;101358.53;;;15.36;100.00
67840;BME280;54636;51.684;5.142;2023-05-09T08:04:30;101355.06;;;15.41;100.00
67840;BME280;54636;51.684;5.142;2023-05-09T08:06:56;101342.59;;;15.45;100.00
67840;BME280;54636;51.684;5.142;2023-05-09T08:09:22;101357.50;;;15.61;100.00
67840;BME280;54636;51.684;5.142;2023-05-09T08:11:47;101348.81;;;15.57;100.00
67840;BME280;54636;51.684;5.142;2023-05-09T08:14:13;101346.81;;;15.52;100.00
67840;BME280;54636;51.684;5.142;2023-05-09T08:16:38;101347.31;;;15.56;100.00
67840;BME280;54636;51.684;5.142;2023-05-09T08:19:03;101341.31;;;15.63;100.00
67840;BME280;54636;51.684;5.142;2023-05-09T08:21:29;101349.00;;;15.70;100.00
67840;BME280;54636;51.684;5.142;2023-05-09T08:23:54;101335.88;;;15.52;100.00
67840;BME280;54636;51.684;5.142;2023-05-09T08:26:20;101336.09;;;15.54;100.00
67840;BME280;54636;51.684;5.142;2023-05-09T08:28:46;101337.63;;;15.49;100.00
67840;BME280;54636;51.684;5.142;2023-05-09T08:31:12;101329.16;;;15.47;100.00
67840;BME280;54636;51.684;5.142;2023-05-09T08:33:37;101325.44;;;15.39;100.00
67840;BME280;54636;51.684;5.142;2023-05-09T08:36:03;101316.25;;;15.31;100.00
67840;BME280;54636;51.684;5.142;2023-05-09T08:38:28;101318.72;;;15.40;100.00
67840;BME280;54636;51.684;5.142;2023-05-09T08:41:00;101324.44;;;15.48;100.00
67840;BME280;54636;51.684;5.142;2023-05-09T08:43:27;101321.44;;;15.52;100.00
67840;BME280;54636;51.684;5.142;2023-05-09T08:46:07;101319.19;;;15.50;100.00
67840;BME280;54636;51.684;5.142;2023-05-09T08:48:34;101310.97;;;15.50;100.00
67840;BME280;54636;51.684;5.142;2023-05-09T08:51:06;101310.94;;;15.61;100.00
67840;BME280;54636;51.684;5.142;2023-05-09T08:53:34;101314.91;;;15.71;100.00
67840;BME280;54636;51.684;5.142;2023-05-09T08:56:02;101307.88;;;15.81;100.00
67840;BME280;54636;51.684;5.142;2023-05-09T08:58:30;101301.88;;;15.89;100.00
67840;BME280;54636;51.684;5.142;2023-05-09T09:00:55;101307.31;;;16.00;100.00
67840;BME280;54636;51.684;5.142;2023-05-09T09:03:22;101300.78;;;16.08;100.00
67840;BME280;54636;51.684;5.142;2023-05-09T09:05:48;101294.78;;;16.16;100.00
67840;BME280;54636;51.684;5.142;2023-05-09T09:08:16;101302.22;;;16.21;100.00
67840;BME280;54636;51.684;5.142;2023-05-09T09:10:43;101295.16;;;16.31;100.00
67840;BME280;54636;51.684;5.142;2023-05-09T09:13:12;101299.56;;;16.39;100.00
67840;BME280;54636;51.684;5.142;2023-05-09T09:15:39;101290.09;;;16.40;100.00
67840;BME280;54636;51.684;5.142;2023-05-09T09:18:07;101292.06;;;16.45;100.00
67840;BME280;54636;51.684;5.142;2023-05-09T09:20:36;101287.31;;;16.46;100.00
67840;BME280;54636;51.684;5.142;2023-05-09T09:23:08;101282.03;;;16.54;100.00
67840;BME280;54636;51.684;5.142;2023-05-09T09:25:36;101284.78;;;16.54;100.00
67840;BME280;54636;51.684;5.142;2023-05-09T09:28:03;101286.50;;;16.57;100.00
67840;BME280;54636;51.684;5.142;2023-05-09T09:30:29;101276.31;;;16.52;100.00
67840;BME280;54636;51.684;5.142;2023-05-09T09:32:57;101280.59;;;16.47;100.00
67840;BME280;54636;51.684;5.142;2023-05-09T09:35:22;101270.41;;;16.42;100.00
67840;BME280;54636;51.684;5.142;2023-05-09T09:37:55;101268.09;;;16.52;100.00
67840;BME280;54636;51.684;5.142;2023-05-09T09:40:23;101262.66;;;16.46;100.00
67840;BME280;54636;51.684;5.142;2023-05-09T09:42:50;101280.34;;;16.45;100.00
67840;BME280;54636;51.684;5.142;2023-05-09T09:45:17;101260.53;;;16.28;100.00
67840;BME280;54636;51.684;5.142;2023-05-09T09:47:44;101269.50;;;16.28;100.00
67840;BME280;54636;51.684;5.142;2023-05-09T09:50:10;101271.41;;;16.39;100.00
67840;BME280;54636;51.684;5.142;2023-05-09T09:52:50;101273.47;;;16.33;100.00
67840;BME280;54636;51.684;5.142;2023-05-09T09:55:17;101263.22;;;16.33;100.00
67840;BME280;54636;51.684;5.142;2023-05-09T09:57:42;101249.34;;;16.26;100.00
67840;BME280;54636;51.684;5.142;2023-05-09T10:00:11;101256.53;;;16.29;100.00
67840;BME280;54636;51.684;5.142;2023-05-09T10:02:50;101259.44;;;16.42;100.00
67840;BME280;54636;51.684;5.142;2023-05-09T10:05:23;101262.97;;;16.37;100.00
67840;BME280;54636;51.684;5.142;2023-05-09T10:07:57;101261.19;;;16.39;100.00
67840;BME280;54636;51.684;5.142;2023-05-09T10:10:28;101251.72;;;16.40;100.00
67840;BME280;54636;51.684;5.142;2023-05-09T10:13:12;101250.19;;;16.45;100.00
67840;BME280;54636;51.684;5.142;2023-05-09T10:15:38;101248.22;;;16.40;100.00
67840;BME280;54636;51.684;5.142;2023-05-09T10:18:07;101242.28;;;16.36;100.00
67840;BME280;54636;51.684;5.142;2023-05-09T10:20:36;101247.28;;;16.32;100.00
67840;BME280;54636;51.684;5.142;2023-05-09T10:23:05;101238.16;;;16.24;100.00
67840;BME280;54636;51.684;5.142;2023-05-09T10:28:10;101238.44;;;16.20;100.00
67840;BME280;54636;51.684;5.142;2023-05-09T10:33:15;101227.47;;;16.20;100.00
67840;BME280;54636;51.684;5.142;2023-05-09T10:35:45;101219.56;;;16.11;100.00
67840;BME280;54636;51.684;5.142;2023-05-09T10:38:12;101229.00;;;16.16;100.00
67840;BME280;54636;51.684;5.142;2023-05-09T10:40:41;101225.28;;;16.13;100.00
67840;BME280;54636;51.684;5.142;2023-05-09T10:43:07;101225.28;;;16.13;100.00
67840;BME280;54636;51.684;5.142;2023-05-09T10:45:33;101217.59;;;16.06;100.00
67840;BME280;54636;51.684;5.142;2023-05-09T10:48:00;101211.22;;;15.92;100.00
67840;BME280;54636;51.684;5.142;2023-05-09T10:50:28;101214.50;;;15.85;100.00
67840;BME280;54636;51.684;5.142;2023-05-09T10:55:56;101209.75;;;15.86;100.00
67840;BME280;54636;51.684;5.142;2023-05-09T10:58:33;101208.00;;;15.88;100.00
67840;BME280;54636;51.684;5.142;2023-05-09T11:01:02;101201.50;;;15.91;100.00
67840;BME280;54636;51.684;5.142;2023-05-09T11:03:51;101207.38;;;16.06;100.00
67840;BME280;54636;51.684;5.142;2023-05-09T11:06:46;101196.34;;;16.18;100.00
67840;BME280;54636;51.684;5.142;2023-05-09T11:09:41;101191.69;;;16.37;100.00
67840;BME280;54636;51.684;5.142;2023-05-09T11:12:11;101183.63;;;16.44;100.00
67840;BME280;54636;51.684;5.142;2023-05-09T11:14:45;101190.09;;;16.47;100.00
67840;BME280;54636;51.684;5.142;2023-05-09T11:22:15;101166.81;;;16.59;100.00
67840;BME280;54636;51.684;5.142;2023-05-09T11:24:48;101175.09;;;16.54;100.00
67840;BME280;54636;51.684;5.142;2023-05-09T11:27:22;101176.91;;;16.45;100.00
67840;BME280;54636;51.684;5.142;2023-05-09T11:29:55;101168.16;;;16.47;100.00
67840;BME280;54636;51.684;5.142;2023-05-09T11:33:20;101163.72;;;16.44;100.00
67840;BME280;54636;51.684;5.142;2023-05-09T11:35:17;101168.84;;;16.53;100.00
67840;BME280;54636;51.684;5.142;2023-05-09T11:37:52;101170.22;;;16.41;100.00
67840;BME280;54636;51.684;5.142;2023-05-09T11:40:20;101165.81;;;16.32;100.00
67840;BME280;54636;51.684;5.142;2023-05-09T11:42:50;101155.81;;;16.35;100.00
67840;BME280;54636;51.684;5.142;2023-05-09T11:45:20;101164.25;;;16.37;100.00
67840;BME280;54636;51.684;5.142;2023-05-09T11:47:47;101160.41;;;16.51;100.00
67840;BME280;54636;51.684;5.142;2023-05-09T11:50:13;101161.16;;;16.52;100.00
67840;BME280;54636;51.684;5.142;2023-05-09T11:52:40;101152.47;;;16.47;100.00
67840;BME280;54636;51.684;5.142;2023-05-09T11:55:10;101155.59;;;16.57;100.00
67840;BME280;54636;51.684;5.142;2023-05-09T11:57:48;101144.09;;;16.64;100.00
67840;BME280;54636;51.684;5.142;2023-05-09T12:00:18;101145.19;;;16.80;100.00
67840;BME280;54636;51.684;5.142;2023-05-09T12:02:45;101142.50;;;16.93;100.00
67840;BME280;54636;51.684;5.142;2023-05-09T12:05:15;101135.84;;;16.89;100.00
67840;BME280;54636;51.684;5.142;2023-05-09T12:07:41;101134.50;;;16.95;100.00
67840;BME280;54636;51.684;5.142;2023-05-09T12:10:07;101134.81;;;17.10;100.00
67840;BME280;54636;51.684;5.142;2023-05-09T12:12:35;101131.72;;;17.20;100.00
67840;BME280;54636;51.684;5.142;2023-05-09T12:15:02;101130.75;;;17.17;100.00
67840;BME280;54636;51.684;5.142;2023-05-09T12:17:28;101130.06;;;16.92;100.00
67840;BME280;54636;51.684;5.142;2023-05-09T12:19:54;101114.47;;;16.57;100.00
67840;BME280;54636;51.684;5.142;2023-05-09T12:22:19;101123.84;;;16.43;100.00
67840;BME280;54636;51.684;5.142;2023-05-09T12:24:45;101117.59;;;16.42;100.00
67840;BME280;54636;51.684;5.142;2023-05-09T12:27:11;101108.81;;;16.50;100.00
67840;BME280;54636;51.684;5.142;2023-05-09T12:29:36;101119.38;;;16.40;100.00
67840;BME280;54636;51.684;5.142;2023-05-09T12:32:04;101117.72;;;16.31;100.00
67840;BME280;54636;51.684;5.142;2023-05-09T12:34:30;101117.44;;;16.35;100.00
67840;BME280;54636;51.684;5.142;2023-05-09T12:36:56;101116.91;;;16.36;100.00
67840;BME280;54636;51.684;5.142;2023-05-09T12:39:24;101111.16;;;16.40;100.00
67840;BME280;54636;51.684;5.142;2023-05-09T12:41:51;101105.16;;;16.41;100.00
67840;BME280;54636;51.684;5.142;2023-05-09T12:44:22;101108.31;;;16.51;100.00
67840;BME280;54636;51.684;5.142;2023-05-09T12:46:57;101103.03;;;16.53;100.00
67840;BME280;54636;51.684;5.142;2023-05-09T12:49:24;101103.09;;;16.47;100.00
67840;BME280;54636;51.684;5.142;2023-05-09T12:51:50;101102.53;;;16.55;100.00
67840;BME280;54636;51.684;5.142;2023-05-09T12:54:25;101099.44;;;16.64;100.00
67840;BME280;54636;51.684;5.142;2023-05-09T12:56:51;101099.28;;;16.56;100.00
67840;BME280;54636;51.684;5.142;2023-05-09T12:59:22;101100.94;;;16.40;100.00
67840;BME280;54636;51.684;5.142;2023-05-09T13:02:06;101089.34;;;16.53;100.00
67840;BME280;54636;51.684;5.142;2023-05-09T13:04:31;101090.81;;;16.30;100.00